sensor_id;sensor_type;location;lat;lon;timestamp;P1;durP1;ratioP1;P2;durP2;ratioP2
9496;SDS011;4786;51.270;4.456;2023-03-14T00:02:10;8.43;;;2.40;;
9496;SDS011;4786;51.270;4.456;2023-03-14T00:04:36;5.77;;;2.00;;
9496;SDS011;4786;51.270;4.456;2023-03-14T00:07:03;8.13;;;2.30;;
9496;SDS011;4786;51.270;4.456;2023-03-14T00:09:29;7.80;;;2.10;;
9496;SDS011;4786;51.270;4.456;2023-03-14T00:11:55;9.10;;;2.37;;
9496;SDS011;4786;51.270;4.456;2023-03-14T00:14:21;5.97;;;1.80;;
9496;SDS011;4786;51.270;4.456;2023-03-14T00:16:48;5.73;;;1.83;;
9496;SDS011;4786;51.270;4.456;2023-03-14T00:19:13;6.47;;;2.17;;
9496;SDS011;4786;51.270;4.456;2023-03-14T00:21:40;7.60;;;2.20;;
9496;SDS011;4786;51.270;4.456;2023-03-14T00:24:06;7.20;;;2.07;;
9496;SDS011;4786;51.270;4.456;2023-03-14T00:26:33;5.20;;;1.90;;
9496;SDS011;4786;51.270;4.456;2023-03-14T00:28:59;4.43;;;1.87;;
9496;SDS011;4786;51.270;4.456;2023-03-14T00:31:24;4.13;;;1.77;;
9496;SDS011;4786;51.270;4.456;2023-03-14T00:33:51;5.10;;;1.80;;
9496;SDS011;4786;51.270;4.456;2023-03-14T00:36:18;4.50;;;1.93;;
9496;SDS011;4786;51.270;4.456;2023-03-14T00:38:46;3.90;;;1.40;;
9496;SDS011;4786;51.270;4.456;2023-03-14T00:41:14;4.70;;;1.80;;
9496;SDS011;4786;51.270;4.456;2023-03-14T00:43:42;7.73;;;2.20;;
9496;SDS011;4786;51.270;4.456;2023-03-14T00:46:08;6.70;;;1.87;;
9496;SDS011;4786;51.270;4.456;2023-03-14T00:48:35;4.23;;;1.67;;
9496;SDS011;4786;51.270;4.456;2023-03-14T00:51:01;6.53;;;1.87;;
9496;SDS011;4786;51.270;4.456;2023-03-14T00:53:31;3.80;;;1.80;;
9496;SDS011;4786;51.270;4.456;2023-03-14T00:56:02;5.70;;;1.93;;
9496;SDS011;4786;51.270;4.456;2023-03-14T00:58:29;5.00;;;1.87;;
9496;SDS011;4786;51.270;4.456;2023-03-14T01:00:54;3.80;;;1.70;;
9496;SDS011;4786;51.270;4.456;2023-03-14T01:03:20;4.93;;;1.73;;
9496;SDS011;4786;51.270;4.456;2023-03-14T01:05:47;6.00;;;1.93;;
9496;SDS011;4786;51.270;4.456;2023-03-14T01:08:13;7.27;;;2.00;;
9496;SDS011;4786;51.270;4.456;2023-03-14T01:10:39;7.33;;;2.30;;
9496;SDS011;4786;51.270;4.456;2023-03-14T01:13:06;5.67;;;2.20;;
9496;SDS011;4786;51.270;4.456;2023-03-14T01:15:35;6.23;;;2.30;;
9496;SDS011;4786;51.270;4.456;2023-03-14T01:18:02;7.57;;;2.77;;
9496;SDS011;4786;51.270;4.456;2023-03-14T01:20:28;8.93;;;2.23;;
9496;SDS011;4786;51.270;4.456;2023-03-14T01:22:55;7.43;;;2.50;;
9496;SDS011;4786;51.270;4.456;2023-03-14T01:25:21;7.20;;;2.50;;
9496;SDS011;4786;51.270;4.456;2023-03-14T01:27:47;8.27;;;2.60;;
9496;SDS011;4786;51.270;4.456;2023-03-14T01:30:13;10.57;;;2.40;;
9496;SDS011;4786;51.270;4.456;2023-03-14T01:32:39;6.10;;;2.13;;
9496;SDS011;4786;51.270;4.456;2023-03-14T01:35:05;6.30;;;1.93;;
9496;SDS011;4786;51.270;4.456;2023-03-14T01:37:31;9.87;;;2.57;;
9496;SDS011;4786;51.270;4.456;2023-03-14T01:39:57;11.00;;;2.60;;
9496;SDS011;4786;51.270;4.456;2023-03-14T01:42:23;10.13;;;3.03;;
9496;SDS011;4786;51.270;4.456;2023-03-14T01:44:53;6.97;;;2.73;;
9496;SDS011;4786;51.270;4.456;2023-03-14T01:47:21;8.50;;;2.40;;
9496;SDS011;4786;51.270;4.456;2023-03-14T01:49:53;8.77;;;2.50;;
9496;SDS011;4786;51.270;4.456;2023-03-14T01:52:25;9.73;;;2.60;;
9496;SDS011;4786;51.270;4.456;2023-03-14T01:54:59;6.23;;;2.50;;
9496;SDS011;4786;51.270;4.456;2023-03-14T01:57:54;5.27;;;2.20;;
9496;SDS011;4786;51.270;4.456;2023-03-14T02:00:24;9.47;;;2.50;;
9496;SDS011;4786;51.270;4.456;2023-03-14T02:02:51;7.20;;;2.37;;
9496;SDS011;4786;51.270;4.456;2023-03-14T02:05:30;11.93;;;2.87;;
9496;SDS011;4786;51.270;4.456;2023-03-14T02:08:01;10.60;;;2.60;;
9496;SDS011;4786;51.270;4.456;2023-03-14T02:10:32;11.87;;;3.13;;
9496;SDS011;4786;51.270;4.456;2023-03-14T02:13:03;9.63;;;2.70;;
9496;SDS011;4786;51.270;4.456;2023-03-14T02:15:30;7.70;;;2.57;;
9496;SDS011;4786;51.270;4.456;2023-03-14T02:17:56;7.93;;;2.27;;
9496;SDS011;4786;51.270;4.456;2023-03-14T02:23:04;9.77;;;2.13;;
9496;SDS011;4786;51.270;4.456;2023-03-14T02:25:37;7.60;;;2.43;;
9496;SDS011;4786;51.270;4.456;2023-03-14T02:28:04;12.87;;;3.10;;
9496;SDS011;4786;51.270;4.456;2023-03-14T02:30:31;11.13;;;2.87;;
9496;SDS011;4786;51.270;4.456;2023-03-14T02:33:05;7.77;;;2.37;;
9496;SDS011;4786;51.270;4.456;2023-03-14T02:35:35;7.73;;;2.30;;
9496;SDS011;4786;51.270;4.456;2023-03-14T02:40:50;9.30;;;2.57;;
9496;SDS011;4786;51.270;4.456;2023-03-14T02:43:16;7.97;;;2.20;;
9496;SDS011;4786;51.270;4.456;2023-03-14T02:48:12;9.17;;;2.40;;
9496;SDS011;4786;51.270;4.456;2023-03-14T02:50:41;6.13;;;2.10;;
9496;SDS011;4786;51.270;4.456;2023-03-14T02:53:08;8.57;;;2.30;;
9496;SDS011;4786;51.270;4.456;2023-03-14T02:55:34;8.03;;;2.17;;
9496;SDS011;4786;51.270;4.456;2023-03-14T02:58:00;6.93;;;2.33;;
9496;SDS011;4786;51.270;4.456;2023-03-14T03:00:26;7.80;;;2.63;;
9496;SDS011;4786;51.270;4.456;2023-03-14T03:02:53;7.17;;;2.00;;
9496;SDS011;4786;51.270;4.456;2023-03-14T03:05:18;7.93;;;2.43;;
9496;SDS011;4786;51.270;4.456;2023-03-14T03:07:45;5.03;;;2.20;;
9496;SDS011;4786;51.270;4.456;2023-03-14T03:10:11;6.27;;;2.20;;
9496;SDS011;4786;51.270;4.456;2023-03-14T03:12:37;6.07;;;1.80;;
9496;SDS011;4786;51.270;4.456;2023-03-14T03:15:03;8.57;;;2.60;;
9496;SDS011;4786;51.270;4.456;2023-03-14T03:17:29;7.00;;;2.27;;
9496;SDS011;4786;51.270;4.456;2023-03-14T03:19:55;4.43;;;1.80;;
9496;SDS011;4786;51.270;4.456;2023-03-14T03:22:21;6.47;;;2.10;;
9496;SDS011;4786;51.270;4.456;2023-03-14T03:24:47;4.20;;;1.63;;
9496;SDS011;4786;51.270;4.456;2023-03-14T03:27:14;5.47;;;1.90;;
9496;SDS011;4786;51.270;4.456;2023-03-14T03:29:40;6.00;;;2.23;;
9496;SDS011;4786;51.270;4.456;2023-03-14T03:32:06;6.67;;;2.33;;
9496;SDS011;4786;51.270;4.456;2023-03-14T03:34:32;4.20;;;1.67;;
9496;SDS011;4786;51.270;4.456;2023-03-14T03:36:58;4.07;;;1.80;;
9496;SDS011;4786;51.270;4.456;2023-03-14T03:39:24;5.87;;;2.10;;
9496;SDS011;4786;51.270;4.456;2023-03-14T03:41:50;5.87;;;2.07;;
9496;SDS011;4786;51.270;4.456;2023-03-14T03:44:16;5.20;;;1.93;;
9496;SDS011;4786;51.270;4.456;2023-03-14T03:46:42;4.87;;;2.23;;
9496;SDS011;4786;51.270;4.456;2023-03-14T03:49:08;5.00;;;1.93;;
9496;SDS011;4786;51.270;4.456;2023-03-14T03:51:33;5.27;;;2.00;;
9496;SDS011;4786;51.270;4.456;2023-03-14T03:53:59;4.93;;;2.40;;
9496;SDS011;4786;51.270;4.456;2023-03-14T03:56:25;8.53;;;2.50;;
9496;SDS011;4786;51.270;4.456;2023-03-14T03:58:51;5.47;;;2.53;;
9496;SDS011;4786;51.270;4.456;2023-03-14T04:01:18;7.83;;;2.53;;
9496;SDS011;4786;51.270;4.456;2023-03-14T04:03:44;4.93;;;2.40;;
9496;SDS011;4786;51.270;4.456;2023-03-14T04:06:11;6.03;;;2.40;;
9496;SDS011;4786;51.270;4.456;2023-03-14T04:08:37;6.20;;;2.90;;
9496;SDS011;4786;51.270;4.456;2023-03-14T04:11:05;6.43;;;2.60;;
9496;SDS011;4786;51.270;4.456;2023-03-14T04:13:31;6.87;;;2.50;;
9496;SDS011;4786;51.270;4.456;2023-03-14T04:15:57;6.67;;;2.90;;
9496;SDS011;4786;51.270;4.456;2023-03-14T04:18:23;7.37;;;2.53;;
9496;SDS011;4786;51.270;4.456;2023-03-14T04:20:51;6.43;;;2.57;;
9496;SDS011;4786;51.270;4.456;2023-03-14T04:23:21;5.23;;;2.63;;
9496;SDS011;4786;51.270;4.456;2023-03-14T04:25:49;8.30;;;2.80;;
9496;SDS011;4786;51.270;4.456;2023-03-14T04:28:16;8.83;;;3.10;;
9496;SDS011;4786;51.270;4.456;2023-03-14T04:30:42;6.17;;;2.50;;
9496;SDS011;4786;51.270;4.456;2023-03-14T04:33:08;7.83;;;2.97;;
9496;SDS011;4786;51.270;4.456;2023-03-14T04:35:34;6.13;;;2.87;;
9496;SDS011;4786;51.270;4.456;2023-03-14T04:38:01;7.53;;;3.00;;
9496;SDS011;4786;51.270;4.456;2023-03-14T04:40:27;7.90;;;2.90;;
9496;SDS011;4786;51.270;4.456;2023-03-14T04:42:53;6.30;;;2.97;;
9496;SDS011;4786;51.270;4.456;2023-03-14T04:45:18;4.10;;;2.63;;
9496;SDS011;4786;51.270;4.456;2023-03-14T04:47:44;6.83;;;2.67;;
9496;SDS011;4786;51.270;4.456;2023-03-14T04:50:10;7.80;;;3.10;;
9496;SDS011;4786;51.270;4.456;2023-03-14T04:52:36;7.17;;;2.93;;
9496;SDS011;4786;51.270;4.456;2023-03-14T04:55:01;5.63;;;2.70;;
9496;SDS011;4786;51.270;4.456;2023-03-14T04:57:29;6.20;;;3.37;;
9496;SDS011;4786;51.270;4.456;2023-03-14T04:59:55;9.43;;;3.80;;
9496;SDS011;4786;51.270;4.456;2023-03-14T05:02:20;5.97;;;3.60;;
9496;SDS011;4786;51.270;4.456;2023-03-14T05:04:46;8.23;;;3.90;;
9496;SDS011;4786;51.270;4.456;2023-03-14T05:07:12;6.80;;;3.73;;
9496;SDS011;4786;51.270;4.456;2023-03-14T05:09:37;6.83;;;4.40;;
9496;SDS011;4786;51.270;4.456;2023-03-14T05:12:03;8.13;;;4.77;;
9496;SDS011;4786;51.270;4.456;2023-03-14T05:14:29;6.90;;;4.67;;
9496;SDS011;4786;51.270;4.456;2023-03-14T05:16:55;10.57;;;5.30;;
9496;SDS011;4786;51.270;4.456;2023-03-14T05:19:21;7.00;;;4.63;;
9496;SDS011;4786;51.270;4.456;2023-03-14T05:21:47;7.87;;;5.30;;
9496;SDS011;4786;51.270;4.456;2023-03-14T05:24:13;8.10;;;4.80;;
9496;SDS011;4786;51.270;4.456;2023-03-14T05:26:39;5.50;;;4.67;;
9496;SDS011;4786;51.270;4.456;2023-03-14T05:29:05;6.43;;;4.37;;
9496;SDS011;4786;51.270;4.456;2023-03-14T05:31:30;7.10;;;4.23;;
9496;SDS011;4786;51.270;4.456;2023-03-14T05:33:56;7.90;;;4.63;;
9496;SDS011;4786;51.270;4.456;2023-03-14T05:36:22;7.17;;;4.30;;
9496;SDS011;4786;51.270;4.456;2023-03-14T05:38:48;8.67;;;4.53;;
9496;SDS011;4786;51.270;4.456;2023-03-14T05:41:14;6.63;;;4.13;;
9496;SDS011;4786;51.270;4.456;2023-03-14T05:43:39;6.23;;;4.00;;
9496;SDS011;4786;51.270;4.456;2023-03-14T05:46:05;6.17;;;4.03;;
9496;SDS011;4786;51.270;4.456;2023-03-14T05:48:31;8.07;;;4.50;;
9496;SDS011;4786;51.270;4.456;2023-03-14T05:50:57;6.77;;;4.23;;
9496;SDS011;4786;51.270;4.456;2023-03-14T05:53:24;7.33;;;4.30;;
9496;SDS011;4786;51.270;4.456;2023-03-14T05:55:54;9.03;;;4.20;;
9496;SDS011;4786;51.270;4.456;2023-03-14T05:58:20;9.43;;;3.83;;
9496;SDS011;4786;51.270;4.456;2023-03-14T06:00:47;9.47;;;4.77;;
9496;SDS011;4786;51.270;4.456;2023-03-14T06:03:13;8.93;;;3.50;;
9496;SDS011;4786;51.270;4.456;2023-03-14T06:05:39;11.33;;;4.00;;
9496;SDS011;4786;51.270;4.456;2023-03-14T06:08:06;6.87;;;3.60;;
9496;SDS011;4786;51.270;4.456;2023-03-14T06:10:31;8.13;;;3.80;;
9496;SDS011;4786;51.270;4.456;2023-03-14T06:12:57;6.77;;;3.30;;
9496;SDS011;4786;51.270;4.456;2023-03-14T06:15:23;6.07;;;3.53;;
9496;SDS011;4786;51.270;4.456;2023-03-14T06:17:48;5.43;;;3.63;;
9496;SDS011;4786;51.270;4.456;2023-03-14T06:20:15;9.33;;;4.07;;
9496;SDS011;4786;51.270;4.456;2023-03-14T06:22:41;5.43;;;3.60;;
9496;SDS011;4786;51.270;4.456;2023-03-14T06:25:07;5.37;;;3.63;;
9496;SDS011;4786;51.270;4.456;2023-03-14T06:27:34;4.43;;;2.80;;
9496;SDS011;4786;51.270;4.456;2023-03-14T06:29:59;3.43;;;1.70;;
9496;SDS011;4786;51.270;4.456;2023-03-14T06:32:25;2.23;;;1.63;;
9496;SDS011;4786;51.270;4.456;2023-03-14T06:34:51;3.43;;;1.60;;
9496;SDS011;4786;51.270;4.456;2023-03-14T06:37:17;2.87;;;1.53;;
9496;SDS011;4786;51.270;4.456;2023-03-14T06:39:43;3.17;;;1.63;;
9496;SDS011;4786;51.270;4.456;2023-03-14T06:42:09;3.20;;;1.30;;
9496;SDS011;4786;51.270;4.456;2023-03-14T06:44:35;4.70;;;1.53;;
9496;SDS011;4786;51.270;4.456;2023-03-14T06:47:02;2.50;;;1.40;;
9496;SDS011;4786;51.270;4.456;2023-03-14T06:49:28;3.40;;;1.37;;
9496;SDS011;4786;51.270;4.456;2023-03-14T06:51:54;2.80;;;1.40;;
9496;SDS011;4786;51.270;4.456;2023-03-14T06:54:19;4.03;;;1.90;;
9496;SDS011;4786;51.270;4.456;2023-03-14T06:56:46;3.23;;;1.40;;
9496;SDS011;4786;51.270;4.456;2023-03-14T06:59:12;4.30;;;2.03;;
9496;SDS011;4786;51.270;4.456;2023-03-14T07:01:38;4.03;;;1.70;;
9496;SDS011;4786;51.270;4.456;2023-03-14T07:04:04;4.03;;;1.60;;
9496;SDS011;4786;51.270;4.456;2023-03-14T07:06:30;4.53;;;1.60;;
9496;SDS011;4786;51.270;4.456;2023-03-14T07:08:56;3.03;;;1.13;;
9496;SDS011;4786;51.270;4.456;2023-03-14T07:11:22;4.20;;;1.40;;
9496;SDS011;4786;51.270;4.456;2023-03-14T07:13:49;4.53;;;1.30;;
9496;SDS011;4786;51.270;4.456;2023-03-14T07:16:15;3.50;;;1.30;;
9496;SDS011;4786;51.270;4.456;2023-03-14T07:18:40;4.27;;;1.40;;
9496;SDS011;4786;51.270;4.456;2023-03-14T07:21:06;4.83;;;1.70;;
9496;SDS011;4786;51.270;4.456;2023-03-14T07:23:34;4.33;;;1.50;;
9496;SDS011;4786;51.270;4.456;2023-03-14T07:25:59;4.67;;;1.27;;
9496;SDS011;4786;51.270;4.456;2023-03-14T07:28:26;4.33;;;1.27;;
9496;SDS011;4786;51.270;4.456;2023-03-14T07:30:52;6.33;;;1.60;;
9496;SDS011;4786;51.270;4.456;2023-03-14T07:33:20;5.83;;;1.40;;
9496;SDS011;4786;51.270;4.456;2023-03-14T07:35:46;5.20;;;1.50;;
9496;SDS011;4786;51.270;4.456;2023-03-14T07:38:13;8.27;;;1.80;;
9496;SDS011;4786;51.270;4.456;2023-03-14T07:40:39;4.93;;;1.70;;
9496;SDS011;4786;51.270;4.456;2023-03-14T07:43:05;4.10;;;1.77;;
9496;SDS011;4786;51.270;4.456;2023-03-14T07:45:32;6.37;;;1.70;;
9496;SDS011;4786;51.270;4.456;2023-03-14T07:47:57;6.93;;;1.70;;
9496;SDS011;4786;51.270;4.456;2023-03-14T07:50:24;3.67;;;1.57;;
9496;SDS011;4786;51.270;4.456;2023-03-14T07:52:50;8.03;;;2.00;;
9496;SDS011;4786;51.270;4.456;2023-03-14T07:55:16;3.33;;;1.50;;
9496;SDS011;4786;51.270;4.456;2023-03-14T07:57:42;6.53;;;1.57;;
9496;SDS011;4786;51.270;4.456;2023-03-14T08:00:08;4.90;;;1.47;;
9496;SDS011;4786;51.270;4.456;2023-03-14T08:02:35;2.70;;;1.43;;
9496;SDS011;4786;51.270;4.456;2023-03-14T08:05:02;5.40;;;1.70;;
9496;SDS011;4786;51.270;4.456;2023-03-14T08:07:28;4.40;;;1.50;;
9496;SDS011;4786;51.270;4.456;2023-03-14T08:09:54;5.63;;;1.67;;
9496;SDS011;4786;51.270;4.456;2023-03-14T08:12:20;5.70;;;1.70;;
9496;SDS011;4786;51.270;4.456;2023-03-14T08:14:46;6.00;;;1.63;;
9496;SDS011;4786;51.270;4.456;2023-03-14T08:17:12;5.67;;;1.43;;
9496;SDS011;4786;51.270;4.456;2023-03-14T08:19:38;6.47;;;1.63;;
9496;SDS011;4786;51.270;4.456;2023-03-14T08:22:04;6.00;;;1.90;;
9496;SDS011;4786;51.270;4.456;2023-03-14T08:24:30;6.00;;;1.70;;
9496;SDS011;4786;51.270;4.456;2023-03-14T08:26:56;5.33;;;1.30;;
9496;SDS011;4786;51.270;4.456;2023-03-14T08:29:22;4.23;;;1.30;;
9496;SDS011;4786;51.270;4.456;2023-03-14T08:31:49;2.90;;;1.17;;
9496;SDS011;4786;51.270;4.456;2023-03-14T08:34:14;3.10;;;1.20;;
9496;SDS011;4786;51.270;4.456;2023-03-14T08:36:40;3.43;;;1.30;;
9496;SDS011;4786;51.270;4.456;2023-03-14T08:39:07;2.43;;;1.37;;
9496;SDS011;4786;51.270;4.456;2023-03-14T08:41:34;4.13;;;1.10;;
9496;SDS011;4786;51.270;4.456;2023-03-14T08:44:05;2.37;;;1.20;;
9496;SDS011;4786;51.270;4.456;2023-03-14T08:46:32;3.60;;;1.20;;
9496;SDS011;4786;51.270;4.456;2023-03-14T08:48:58;3.70;;;1.20;;
9496;SDS011;4786;51.270;4.456;2023-03-14T08:51:24;5.37;;;1.20;;
9496;SDS011;4786;51.270;4.456;2023-03-14T08:53:50;1.80;;;1.00;;
9496;SDS011;4786;51.270;4.456;2023-03-14T08:56:16;2.60;;;1.20;;
9496;SDS011;4786;51.270;4.456;2023-03-14T08:58:42;3.23;;;1.13;;
9496;SDS011;4786;51.270;4.456;2023-03-14T09:01:09;2.57;;;1.10;;
9496;SDS011;4786;51.270;4.456;2023-03-14T09:03:36;2.77;;;1.40;;
9496;SDS011;4786;51.270;4.456;2023-03-14T09:06:03;5.07;;;1.20;;
9496;SDS011;4786;51.270;4.456;2023-03-14T09:08:30;3.57;;;1.40;;
9496;SDS011;4786;51.270;4.456;2023-03-14T09:10:56;3.27;;;1.30;;
9496;SDS011;4786;51.270;4.456;2023-03-14T09:13:22;4.13;;;1.50;;
9496;SDS011;4786;51.270;4.456;2023-03-14T09:15:52;5.03;;;1.60;;
9496;SDS011;4786;51.270;4.456;2023-03-14T09:18:19;4.90;;;1.47;;
9496;SDS011;4786;51.270;4.456;2023-03-14T09:20:46;4.67;;;1.63;;
9496;SDS011;4786;51.270;4.456;2023-03-14T09:23:12;4.73;;;1.43;;
9496;SDS011;4786;51.270;4.456;2023-03-14T09:25:38;3.40;;;1.30;;
9496;SDS011;4786;51.270;4.456;2023-03-14T09:28:04;5.73;;;1.40;;
9496;SDS011;4786;51.270;4.456;2023-03-14T09:30:31;5.63;;;1.73;;
9496;SDS011;4786;51.270;4.456;2023-03-14T09:32:57;5.57;;;1.93;;
9496;SDS011;4786;51.270;4.456;2023-03-14T09:35:24;5.53;;;2.03;;
9496;SDS011;4786;51.270;4.456;2023-03-14T09:37:50;9.40;;;2.30;;
9496;SDS011;4786;51.270;4.456;2023-03-14T09:40:17;6.37;;;2.03;;
9496;SDS011;4786;51.270;4.456;2023-03-14T09:42:45;6.87;;;1.77;;
9496;SDS011;4786;51.270;4.456;2023-03-14T09:45:28;6.60;;;1.73;;
9496;SDS011;4786;51.270;4.456;2023-03-14T09:47:55;5.90;;;1.73;;
9496;SDS011;4786;51.270;4.456;2023-03-14T09:50:22;6.07;;;1.67;;
9496;SDS011;4786;51.270;4.456;2023-03-14T09:52:49;8.93;;;2.07;;
9496;SDS011;4786;51.270;4.456;2023-03-14T09:55:21;9.43;;;2.23;;
9496;SDS011;4786;51.270;4.456;2023-03-14T09:57:48;4.20;;;1.80;;
9496;SDS011;4786;51.270;4.456;2023-03-14T10:00:21;5.70;;;1.70;;
9496;SDS011;4786;51.270;4.456;2023-03-14T10:02:56;3.50;;;1.53;;
9496;SDS011;4786;51.270;4.456;2023-03-14T10:05:32;4.50;;;1.67;;
9496;SDS011;4786;51.270;4.456;2023-03-14T10:07:59;3.43;;;1.80;;
9496;SDS011;4786;51.270;4.456;2023-03-14T10:10:25;3.67;;;1.77;;
9496;SDS011;4786;51.270;4.456;2023-03-14T10:12:56;4.10;;;1.50;;
9496;SDS011;4786;51.270;4.456;2023-03-14T10:15:24;3.60;;;1.50;;
9496;SDS011;4786;51.270;4.456;2023-03-14T10:17:52;2.63;;;1.40;;
9496;SDS011;4786;51.270;4.456;2023-03-14T10:20:37;3.33;;;1.43;;
9496;SDS011;4786;51.270;4.456;2023-03-14T10:23:06;3.70;;;1.63;;
9496;SDS011;4786;51.270;4.456;2023-03-14T10:25:39;7.23;;;1.50;;
9496;SDS011;4786;51.270;4.456;2023-03-14T10:28:33;3.53;;;1.50;;
9496;SDS011;4786;51.270;4.456;2023-03-14T10:31:24;3.80;;;1.93;;
9496;SDS011;4786;51.270;4.456;2023-03-14T10:34:00;5.60;;;1.83;;
9496;SDS011;4786;51.270;4.456;2023-03-14T10:36:28;8.70;;;2.10;;
9496;SDS011;4786;51.270;4.456;2023-03-14T10:41:48;7.10;;;1.90;;
9496;SDS011;4786;51.270;4.456;2023-03-14T10:44:21;8.93;;;2.30;;
9496;SDS011;4786;51.270;4.456;2023-03-14T10:47:02;8.07;;;2.03;;
9496;SDS011;4786;51.270;4.456;2023-03-14T10:49:30;11.40;;;2.00;;
9496;SDS011;4786;51.270;4.456;2023-03-14T10:52:01;8.53;;;1.73;;
9496;SDS011;4786;51.270;4.456;2023-03-14T10:54:38;9.30;;;2.40;;
9496;SDS011;4786;51.270;4.456;2023-03-14T10:57:04;7.77;;;2.10;;
9496;SDS011;4786;51.270;4.456;2023-03-14T10:59:38;8.80;;;2.30;;
9496;SDS011;4786;51.270;4.456;2023-03-14T11:02:21;11.00;;;2.30;;
9496;SDS011;4786;51.270;4.456;2023-03-14T11:17:48;7.07;;;2.30;;
9496;SDS011;4786;51.270;4.456;2023-03-14T11:23:01;6.70;;;2.27;;
9496;SDS011;4786;51.270;4.456;2023-03-14T11:25:43;9.93;;;2.27;;
9496;SDS011;4786;51.270;4.456;2023-03-14T11:30:58;11.73;;;3.00;;
9496;SDS011;4786;51.270;4.456;2023-03-14T11:33:38;11.27;;;3.10;;
9496;SDS011;4786;51.270;4.456;2023-03-14T11:36:12;14.93;;;2.97;;
9496;SDS011;4786;51.270;4.456;2023-03-14T11:38:49;12.60;;;3.70;;
9496;SDS011;4786;51.270;4.456;2023-03-14T11:41:20;15.03;;;3.83;;
9496;SDS011;4786;51.270;4.456;2023-03-14T11:43:54;9.60;;;2.83;;
9496;SDS011;4786;51.270;4.456;2023-03-14T11:46:23;10.90;;;3.47;;
9496;SDS011;4786;51.270;4.456;2023-03-14T11:49:14;19.53;;;3.50;;
9496;SDS011;4786;51.270;4.456;2023-03-14T11:51:49;15.60;;;3.27;;
9496;SDS011;4786;51.270;4.456;2023-03-14T11:54:19;12.33;;;3.70;;
9496;SDS011;4786;51.270;4.456;2023-03-14T11:57:03;10.80;;;3.23;;
9496;SDS011;4786;51.270;4.456;2023-03-14T12:02:15;14.30;;;3.70;;
9496;SDS011;4786;51.270;4.456;2023-03-14T12:10:16;17.60;;;4.30;;
9496;SDS011;4786;51.270;4.456;2023-03-14T12:12:42;20.13;;;4.13;;
9496;SDS011;4786;51.270;4.456;2023-03-14T12:15:18;13.07;;;3.97;;
9496;SDS011;4786;51.270;4.456;2023-03-14T12:17:45;13.47;;;3.57;;
9496;SDS011;4786;51.270;4.456;2023-03-14T12:20:18;15.47;;;3.87;;
9496;SDS011;4786;51.270;4.456;2023-03-14T12:23:02;18.07;;;3.87;;
9496;SDS011;4786;51.270;4.456;2023-03-14T12:25:30;18.47;;;4.00;;
9496;SDS011;4786;51.270;4.456;2023-03-14T12:30:43;19.20;;;3.80;;
9496;SDS011;4786;51.270;4.456;2023-03-14T12:43:28;15.47;;;3.37;;
9496;SDS011;4786;51.270;4.456;2023-03-14T12:48:41;14.07;;;3.40;;
9496;SDS011;4786;51.270;4.456;2023-03-14T12:51:28;15.43;;;3.90;;
9496;SDS011;4786;51.270;4.456;2023-03-14T12:59:51;13.33;;;3.30;;
9496;SDS011;4786;51.270;4.456;2023-03-14T13:10:29;14.33;;;3.03;;
9496;SDS011;4786;51.270;4.456;2023-03-14T13:13:03;8.00;;;2.60;;
9496;SDS011;4786;51.270;4.456;2023-03-14T13:15:49;4.77;;;1.97;;
9496;SDS011;4786;51.270;4.456;2023-03-14T13:18:39;9.97;;;2.50;;
9496;SDS011;4786;51.270;4.456;2023-03-14T13:21:24;5.27;;;2.10;;
9496;SDS011;4786;51.270;4.456;2023-03-14T13:23:56;3.90;;;1.60;;
9496;SDS011;4786;51.270;4.456;2023-03-14T13:26:32;6.93;;;2.00;;
9496;SDS011;4786;51.270;4.456;2023-03-14T13:29:36;8.00;;;1.97;;
9496;SDS011;4786;51.270;4.456;2023-03-14T13:31:58;6.03;;;1.83;;
9496;SDS011;4786;51.270;4.456;2023-03-14T13:34:30;7.10;;;2.10;;
9496;SDS011;4786;51.270;4.456;2023-03-14T13:36:57;12.37;;;2.37;;
9496;SDS011;4786;51.270;4.456;2023-03-14T13:39:25;6.63;;;2.17;;
9496;SDS011;4786;51.270;4.456;2023-03-14T13:41:54;8.47;;;2.13;;
9496;SDS011;4786;51.270;4.456;2023-03-14T13:44:24;6.97;;;2.07;;
9496;SDS011;4786;51.270;4.456;2023-03-14T13:47:03;7.60;;;2.33;;
9496;SDS011;4786;51.270;4.456;2023-03-14T13:49:32;10.90;;;2.53;;
9496;SDS011;4786;51.270;4.456;2023-03-14T13:52:01;10.60;;;2.70;;
9496;SDS011;4786;51.270;4.456;2023-03-14T13:54:29;8.77;;;2.40;;
9496;SDS011;4786;51.270;4.456;2023-03-14T13:57:03;8.67;;;2.77;;
9496;SDS011;4786;51.270;4.456;2023-03-14T13:59:32;9.67;;;2.43;;
9496;SDS011;4786;51.270;4.456;2023-03-14T14:02:00;4.67;;;1.93;;
9496;SDS011;4786;51.270;4.456;2023-03-14T14:04:36;6.33;;;2.30;;
9496;SDS011;4786;51.270;4.456;2023-03-14T14:07:06;9.43;;;2.03;;
9496;SDS011;4786;51.270;4.456;2023-03-14T14:09:38;6.23;;;2.00;;
9496;SDS011;4786;51.270;4.456;2023-03-14T14:17:06;7.97;;;2.33;;
9496;SDS011;4786;51.270;4.456;2023-03-14T14:19:36;7.53;;;1.93;;
9496;SDS011;4786;51.270;4.456;2023-03-14T14:22:04;3.77;;;1.40;;
9496;SDS011;4786;51.270;4.456;2023-03-14T14:24:31;7.13;;;1.93;;
9496;SDS011;4786;51.270;4.456;2023-03-14T14:27:00;7.83;;;2.53;;
9496;SDS011;4786;51.270;4.456;2023-03-14T14:29:31;5.50;;;1.80;;
9496;SDS011;4786;51.270;4.456;2023-03-14T14:37:43;6.40;;;1.43;;
9496;SDS011;4786;51.270;4.456;2023-03-14T14:42:51;3.53;;;1.67;;
9496;SDS011;4786;51.270;4.456;2023-03-14T14:45:21;5.70;;;1.90;;
9496;SDS011;4786;51.270;4.456;2023-03-14T14:50:27;6.53;;;2.37;;
9496;SDS011;4786;51.270;4.456;2023-03-14T14:52:56;10.93;;;2.77;;
9496;SDS011;4786;51.270;4.456;2023-03-14T14:55:28;6.00;;;1.93;;
9496;SDS011;4786;51.270;4.456;2023-03-14T14:57:58;5.50;;;1.97;;
9496;SDS011;4786;51.270;4.456;2023-03-14T15:00:46;9.53;;;2.37;;
9496;SDS011;4786;51.270;4.456;2023-03-14T15:03:28;6.77;;;2.00;;
9496;SDS011;4786;51.270;4.456;2023-03-14T15:05:56;7.97;;;2.10;;
9496;SDS011;4786;51.270;4.456;2023-03-14T15:08:26;8.40;;;2.57;;
9496;SDS011;4786;51.270;4.456;2023-03-14T15:10:54;10.93;;;2.23;;
9496;SDS011;4786;51.270;4.456;2023-03-14T15:13:21;7.27;;;2.17;;
9496;SDS011;4786;51.270;4.456;2023-03-14T15:15:47;6.97;;;2.43;;
9496;SDS011;4786;51.270;4.456;2023-03-14T15:18:20;9.97;;;1.90;;
9496;SDS011;4786;51.270;4.456;2023-03-14T15:20:47;10.97;;;2.27;;
9496;SDS011;4786;51.270;4.456;2023-03-14T15:23:14;5.93;;;1.77;;
9496;SDS011;4786;51.270;4.456;2023-03-14T15:25:42;5.10;;;1.87;;
9496;SDS011;4786;51.270;4.456;2023-03-14T15:28:14;5.57;;;2.10;;
9496;SDS011;4786;51.270;4.456;2023-03-14T15:30:45;9.40;;;2.13;;
9496;SDS011;4786;51.270;4.456;2023-03-14T15:33:12;7.23;;;2.20;;
9496;SDS011;4786;51.270;4.456;2023-03-14T15:35:38;6.97;;;2.00;;
9496;SDS011;4786;51.270;4.456;2023-03-14T15:38:08;9.77;;;2.37;;
9496;SDS011;4786;51.270;4.456;2023-03-14T15:40:39;7.30;;;2.47;;
9496;SDS011;4786;51.270;4.456;2023-03-14T15:43:06;13.37;;;2.37;;
9496;SDS011;4786;51.270;4.456;2023-03-14T15:45:32;6.97;;;2.07;;
9496;SDS011;4786;51.270;4.456;2023-03-14T15:47:59;8.37;;;2.20;;
9496;SDS011;4786;51.270;4.456;2023-03-14T15:50:25;8.83;;;2.23;;
9496;SDS011;4786;51.270;4.456;2023-03-14T15:52:51;6.13;;;2.33;;
9496;SDS011;4786;51.270;4.456;2023-03-14T15:55:18;6.33;;;2.20;;
9496;SDS011;4786;51.270;4.456;2023-03-14T15:57:44;10.60;;;2.93;;
9496;SDS011;4786;51.270;4.456;2023-03-14T16:00:14;7.70;;;2.17;;
9496;SDS011;4786;51.270;4.456;2023-03-14T16:02:46;7.60;;;2.60;;
9496;SDS011;4786;51.270;4.456;2023-03-14T16:05:13;5.50;;;1.90;;
9496;SDS011;4786;51.270;4.456;2023-03-14T16:07:40;6.57;;;2.23;;
9496;SDS011;4786;51.270;4.456;2023-03-14T16:10:07;7.90;;;2.40;;
9496;SDS011;4786;51.270;4.456;2023-03-14T16:12:33;4.67;;;2.00;;
9496;SDS011;4786;51.270;4.456;2023-03-14T16:15:00;9.27;;;2.43;;
9496;SDS011;4786;51.270;4.456;2023-03-14T16:17:26;9.20;;;2.17;;
9496;SDS011;4786;51.270;4.456;2023-03-14T16:19:53;6.70;;;2.23;;
9496;SDS011;4786;51.270;4.456;2023-03-14T16:22:18;12.20;;;3.10;;
9496;SDS011;4786;51.270;4.456;2023-03-14T16:24:44;12.00;;;3.40;;
9496;SDS011;4786;51.270;4.456;2023-03-14T16:27:10;6.57;;;2.23;;
9496;SDS011;4786;51.270;4.456;2023-03-14T16:29:36;9.13;;;2.60;;
9496;SDS011;4786;51.270;4.456;2023-03-14T16:32:02;11.10;;;2.73;;
9496;SDS011;4786;51.270;4.456;2023-03-14T16:34:28;6.00;;;2.60;;
9496;SDS011;4786;51.270;4.456;2023-03-14T16:36:54;6.73;;;2.53;;
9496;SDS011;4786;51.270;4.456;2023-03-14T16:39:20;10.03;;;3.13;;
9496;SDS011;4786;51.270;4.456;2023-03-14T16:41:46;8.07;;;2.63;;
9496;SDS011;4786;51.270;4.456;2023-03-14T16:44:11;10.87;;;2.90;;